Flight Track Log - Related Links

Times and Time Zones

All times are in EDT time to prevent confusion due to time zone crossing. See the AAL832 flight status page for this flight to view local times or setup timezone preferences in your user account.

Time Position Orientation Groundspeed Altitude Reporting Facility
EDT Latitude Longitude Course Direction KTS MPH feet Rate Location/Type
Thu 12:33:08 PM 33.9333 -118.4500 90° East 186 214 2,000  Level Southern California TRACON
Thu 12:33:23 PM 33.9317 -118.4611 260° West 189 217 2,400 2,338 Climbing Los Angeles Center
Thu 12:34:25 PM 33.8772 -118.5094 216° Southwest 246 283 5,000 2,855 Climbing Los Angeles Center
Thu 12:35:00 PM 33.7667 -118.0149 90° East  Level FlightAware Approximate
Thu 12:35:27 PM 33.8050 -118.5453 202° Southwest 284 327 8,300  Level Los Angeles Center
Thu 12:36:00 PM 33.7667 -117.8648 90° East  Level FlightAware Approximate
Thu 12:36:29 PM 33.7347 -118.5089 157° South 298 343 11,000  Level Los Angeles Center
Thu 12:37:00 PM 33.7452 -117.7180 97° East  Level FlightAware Approximate
Thu 12:37:31 PM 33.6722 -118.4311 134° Southeast 330 380 13,300  Level Los Angeles Center
Thu 12:38:00 PM 33.7333 -117.5689 90° East  Level FlightAware Approximate
Thu 12:38:34 PM 33.6467 -118.3031 103° East 356 410 16,300  Level Los Angeles Center
Thu 12:39:36 PM 33.6481 -118.1781 89° East 382 440 18,100 1,984 Climbing Los Angeles Center
Thu 12:40:38 PM 33.6475 -118.0436 90° East 401 461 20,400 2,177 Climbing Los Angeles Center
Thu 12:41:40 PM 33.6481 -117.9039 90° East 415 478 22,600 2,177 Climbing Los Angeles Center
Thu 12:42:42 PM 33.6461 -117.7311 91° East 430 495 24,900 1,984 Climbing Los Angeles Center
Thu 12:43:44 PM 33.6450 -117.5819 90° East 446 513 26,700 1,645 Climbing Los Angeles Center
Thu 12:44:46 PM 33.6439 -117.4267 90° East 463 533 28,300 1,452 Climbing Los Angeles Center
Thu 12:45:48 PM 33.6419 -117.2694 91° East 473 544 29,700 1,355 Climbing Los Angeles Center
Thu 12:46:50 PM 33.6394 -117.1067 91° East 488 562 31,100 1,728 Climbing Los Angeles Center
Thu 12:47:53 PM 33.6378 -116.9114 91° East 491 565 33,300 1,824 Climbing Los Angeles Center
Thu 12:48:55 PM 33.6475 -116.7442 86° East 489 563 34,900 774 Climbing Los Angeles Center
Thu 12:49:57 PM 33.6828 -116.5864 75° East 488 562 34,900  Level Los Angeles Center
Thu 12:50:59 PM 33.7183 -116.4281 75° East 488 562 34,900 48 Level Los Angeles Center
Thu 12:52:01 PM 33.7469 -116.3019 75° East 488 562 35,000 387 Climbing Los Angeles Center
Thu 12:53:03 PM 33.7892 -116.1128 75° East 488 562 35,700 919 Climbing Los Angeles Center
Thu 12:54:05 PM 33.8236 -115.9581 75° East 480 552 36,900 581 Climbing Los Angeles Center
Thu 12:55:07 PM 33.8633 -115.7792 75° East 463 533 36,900  Level Los Angeles Center
Thu 12:56:09 PM 33.8950 -115.6261 76° East 468 539 36,900  Level Los Angeles Center
Thu 12:57:12 PM 33.9286 -115.4733 75° East 472 543 36,900  Level Los Angeles Center
Thu 12:58:14 PM 33.9619 -115.3200 75° East 475 547 36,900  Level Los Angeles Center
Thu 12:59:16 PM 33.9958 -115.1672 75° East 473 544 36,900  Level Los Angeles Center
Thu 01:00:18 PM 34.0289 -115.0111 76° East 478 550 36,900  Level Los Angeles Center
Thu 01:01:20 PM 34.0703 -114.8258 75° East 480 552 36,900  Level Los Angeles Center
Thu 01:02:22 PM 34.1036 -114.6700 75° East 480 552 36,900  Level Los Angeles Center
Thu 01:03:24 PM 34.1472 -114.5183 71° East 481 554 36,900  Level Los Angeles Center
Thu 01:04:26 PM 34.1914 -114.3658 71° East 482 555 36,900 57 Level Los Angeles Center
Thu 01:05:10 PM 34.2281 -114.2372 71° East 482 555 37,000 57 Climbing Albuquerque Center
Thu 01:06:12 PM 34.2719 -114.0836 71° East 485 558 37,000  Level Albuquerque Center
Thu 01:07:14 PM 34.3136 -113.9314 72° East 481 554 37,000  Level Albuquerque Center
Thu 01:08:16 PM 34.3542 -113.7786 72° East 480 552 37,000  Level Albuquerque Center
Thu 01:09:18 PM 34.3911 -113.6383 72° East 478 550 37,000  Level Albuquerque Center
Thu 01:10:20 PM 34.4386 -113.4656 72° East 479 551 37,000  Level Albuquerque Center
Thu 01:11:22 PM 34.4803 -113.3156 71° East 478 550 37,000  Level Albuquerque Center
Thu 01:12:24 PM 34.5208 -113.1650 72° East 475 547 37,000  Level Albuquerque Center
Thu 01:13:26 PM 34.5692 -112.9839 72° East 475 547 37,000  Level Albuquerque Center
Thu 01:14:28 PM 34.6092 -112.8322 72° East 478 550 37,000  Level Albuquerque Center
Thu 01:15:30 PM 34.6492 -112.6806 72° East 477 549 37,000  Level Albuquerque Center
Thu 01:16:32 PM 34.6894 -112.5283 72° East 478 550 37,000  Level Albuquerque Center
Thu 01:17:34 PM 34.7319 -112.3511 74° East 478 550 37,000  Level Albuquerque Center
Thu 01:18:36 PM 34.7675 -112.1900 75° East 478 550 37,000  Level Albuquerque Center
Thu 01:19:38 PM 34.8028 -112.0344 75° East 479 551 37,000  Level Albuquerque Center
Thu 01:20:40 PM 34.8386 -111.8781 74° East 482 555 37,000  Level Albuquerque Center
Thu 01:21:42 PM 34.8753 -111.7211 74° East 484 557 37,000  Level Albuquerque Center
Thu 01:22:45 PM 34.9097 -111.5628 75° East 483 556 37,000  Level Albuquerque Center
Thu 01:23:47 PM 34.9525 -111.3736 75° East 482 555 37,000  Level Albuquerque Center
Thu 01:24:49 PM 34.9878 -111.2139 75° East 485 558 37,000  Level Albuquerque Center
Thu 01:25:51 PM 35.0239 -111.0550 74° East 486 559 37,000  Level Albuquerque Center
Thu 01:26:53 PM 35.0581 -110.8958 75° East 485 558 37,000  Level Albuquerque Center
Thu 01:27:55 PM 35.0950 -110.7214 75° East 488 562 37,000  Level Albuquerque Center
Thu 01:28:57 PM 35.1339 -110.5433 75° East 487 560 37,000  Level Albuquerque Center
Thu 01:29:59 PM 35.1656 -110.3903 76° East 485 558 37,000  Level Albuquerque Center
Thu 01:31:01 PM 35.2047 -110.2139 75° East 485 558 37,000  Level Albuquerque Center
Thu 01:32:03 PM 35.2372 -110.0611 75° East 485 558 37,000  Level Albuquerque Center
Thu 01:33:05 PM 35.2692 -109.9078 76° East 486 559 37,000  Level Albuquerque Center
Thu 01:34:07 PM 35.3067 -109.7289 76° East 487 560 37,000  Level Albuquerque Center
Thu 01:35:09 PM 35.3378 -109.5736 76° East 490 564 37,000  Level Albuquerque Center
Thu 01:36:11 PM 35.3747 -109.3953 76° East 487 560 37,000  Level Albuquerque Center
Thu 01:37:13 PM 35.4058 -109.2408 76° East 488 562 37,000  Level Albuquerque Center
Thu 01:38:15 PM 35.4425 -109.0617 76° East 488 562 37,000  Level Albuquerque Center
Thu 01:39:17 PM 35.4731 -108.9078 76° East 487 560 37,000  Level Albuquerque Center
Thu 01:40:19 PM 35.5189 -108.7322 72° East 487 560 37,000  Level Albuquerque Center
Thu 01:41:21 PM 35.5597 -108.5817 72° East 488 562 37,000  Level Albuquerque Center
Thu 01:42:24 PM 35.6075 -108.4053 72° East 490 564 37,000  Level Albuquerque Center
Thu 01:43:26 PM 35.6483 -108.2528 72° East 492 566 37,000  Level Albuquerque Center
Thu 01:44:28 PM 35.6956 -108.0750 72° East 492 566 37,000  Level Albuquerque Center
Thu 01:45:30 PM 35.7356 -107.9225 72° East 491 565 37,000  Level Albuquerque Center
Thu 01:46:32 PM 35.7822 -107.7442 72° East 491 565 37,000  Level Albuquerque Center
Thu 01:47:34 PM 35.8217 -107.5892 73° East 494 568 37,000  Level Albuquerque Center
Thu 01:48:36 PM 35.8689 -107.4111 72° East 493 567 37,000  Level Albuquerque Center
Thu 01:49:38 PM 35.9072 -107.2581 73° East 490 564 37,000  Level Albuquerque Center
Thu 01:50:40 PM 35.9486 -107.0969 72° East 490 564 37,000  Level Albuquerque Center
Thu 01:51:42 PM 35.9892 -106.9367 73° East 489 563 37,000  Level Albuquerque Center
Thu 01:52:44 PM 36.0297 -106.7767 73° East 488 562 37,000  Level Albuquerque Center
Thu 01:53:46 PM 36.0789 -106.5833 72° East 489 563 37,000  Level Albuquerque Center
Thu 01:54:48 PM 36.1186 -106.4217 73° East 490 564 37,000  Level Albuquerque Center
Thu 01:55:50 PM 36.1586 -106.2608 73° East 489 563 37,000  Level Albuquerque Center
Thu 01:56:52 PM 36.1983 -106.1008 73° East 487 560 37,000  Level Albuquerque Center
Thu 01:57:54 PM 36.2381 -105.9386 73° East 490 564 37,000  Level Albuquerque Center
Thu 01:58:56 PM 36.2769 -105.7742 74° East 495 570 37,000  Level Albuquerque Center
Thu 01:59:58 PM 36.3167 -105.6128 73° East 492 566 37,000  Level Albuquerque Center
Thu 02:01:00 PM 36.3581 -105.4367 74° East 490 564 37,000  Level Albuquerque Center
Thu 02:02:02 PM 36.4033 -105.2464 73° East 489 563 37,000  Level Albuquerque Center
Thu 02:03:04 PM 36.4428 -105.0847 73° East 486 559 37,000  Level Albuquerque Center
Thu 02:04:06 PM 36.4803 -104.9217 74° East 485 558 37,000  Level Albuquerque Center
Thu 02:05:08 PM 36.5314 -104.7631 68° East 488 562 37,000  Level Albuquerque Center
Thu 02:06:10 PM 36.5892 -104.6078 65° Northeast 488 562 37,000  Level Albuquerque Center
Thu 02:07:12 PM 36.6364 -104.4481 70° East 487 560 37,000  Level Albuquerque Center
Thu 02:08:13 PM 36.6872 -104.2717 70° East 487 560 37,000  Level Albuquerque Center
Thu 02:09:15 PM 36.7336 -104.1197 69° East 490 564 37,000  Level Albuquerque Center
Thu 02:10:17 PM 36.7864 -103.9422 70° East 490 564 37,000  Level Albuquerque Center
Thu 02:11:19 PM 36.8303 -103.7903 70° East 490 564 37,000  Level Albuquerque Center
Thu 02:12:21 PM 36.8817 -103.6119 70° East 491 565 37,000  Level Albuquerque Center
Thu 02:13:23 PM 36.9269 -103.4603 69° East 490 564 37,000  Level Albuquerque Center
Thu 02:14:25 PM 36.9817 -103.2839 69° East 489 563 37,000  Level Albuquerque Center
Thu 02:15:27 PM 37.0228 -103.1311 71° East 486 559 37,000  Level Albuquerque Center
Thu 02:16:28 PM 37.0581 -102.9769 74° East 485 558 37,000  Level Albuquerque Center
Thu 02:17:30 PM 37.1164 -102.8047 67° East 483 556 37,000  Level Albuquerque Center
Thu 02:18:32 PM 37.1689 -102.6589 66° East 481 554 37,000  Level Albuquerque Center
Thu 02:19:34 PM 37.2281 -102.4900 66° East 476 548 37,000  Level Albuquerque Center
Thu 02:20:36 PM 37.2789 -102.3464 66° East 472 543 37,000  Level Albuquerque Center
Thu 02:21:38 PM 37.3344 -102.1794 67° East 465 535 37,000  Level Albuquerque Center
Thu 02:22:40 PM 37.3861 -102.0286 67° East 463 533 37,000  Level Albuquerque Center
Thu 02:23:42 PM 37.4339 -101.8886 67° East 456 525 37,000  Level Albuquerque Center
Thu 02:24:19 PM 37.4642 -101.7950 68° East 453 521 37,000  Level Kansas City Center
Thu 02:25:20 PM 37.5197 -101.6331 67° East 451 519 37,000  Level Kansas City Center
Thu 02:26:22 PM 37.5664 -101.4942 67° East 450 518 37,000  Level Kansas City Center
Thu 02:27:24 PM 37.6131 -101.3539 67° East 452 520 37,000  Level Kansas City Center
Thu 02:28:26 PM 37.6692 -101.1861 67° East 460 529 37,000  Level Kansas City Center
Thu 02:29:27 PM 37.7197 -101.0344 67° East 465 535 37,000  Level Kansas City Center
Thu 02:30:29 PM 37.7764 -100.8644 67° East 471 542 37,000  Level Kansas City Center
Thu 02:31:31 PM 37.8269 -100.7131 67° East 478 550 37,000  Level Kansas City Center
Thu 02:32:33 PM 37.8756 -100.5633 68° East 480 552 37,000  Level Kansas City Center
Thu 02:33:35 PM 37.9328 -100.3892 67° East 479 551 37,000  Level Kansas City Center
Thu 02:34:37 PM 37.9814 -100.2403 67° East 478 550 37,000  Level Kansas City Center
Thu 02:35:39 PM 38.0392 -100.0667 67° East 479 551 37,000  Level Kansas City Center
Thu 02:36:41 PM 38.0861 -99.9186 68° East 476 548 37,000  Level Kansas City Center
Thu 02:37:43 PM 38.1403 -99.7464 68° East 471 542 37,000  Level Kansas City Center
Thu 02:38:44 PM 38.1881 -99.5986 68° East 472 543 37,000  Level Kansas City Center
Thu 02:39:46 PM 38.2319 -99.4556 69° East 473 544 37,000  Level Kansas City Center
Thu 02:40:48 PM 38.2828 -99.2992 67° East 476 548 37,000  Level Kansas City Center
Thu 02:41:50 PM 38.3411 -99.1136 68° East 472 543 37,000  Level Kansas City Center
Thu 02:42:52 PM 38.3903 -98.9558 68° East 476 548 37,000  Level Kansas City Center
Thu 02:43:54 PM 38.4400 -98.7969 68° East 483 556 37,000  Level Kansas City Center
Thu 02:44:56 PM 38.4886 -98.6397 68° East 478 550 37,000  Level Kansas City Center
Thu 02:45:58 PM 38.5364 -98.4814 69° East 477 549 37,000  Level Kansas City Center
Thu 02:47:00 PM 38.5850 -98.3247 68° East 475 547 37,000  Level Kansas City Center
Thu 02:48:01 PM 38.6322 -98.1664 69° East 475 547 37,000  Level Kansas City Center
Thu 02:49:03 PM 38.6800 -98.0081 69° East 475 547 37,000  Level Kansas City Center
Thu 02:50:05 PM 38.7347 -97.8258 69° East 471 542 37,000  Level Kansas City Center
Thu 02:51:07 PM 38.7806 -97.6739 69° East 475 547 37,000  Level Kansas City Center
Thu 02:52:09 PM 38.8314 -97.5019 69° East 475 547 37,000  Level Kansas City Center
Thu 02:53:11 PM 38.8775 -97.3406 70° East 477 549 37,000  Level Kansas City Center
Thu 02:54:13 PM 38.9242 -97.1811 69° East 477 549 37,000 290 Level Kansas City Center
Thu 02:55:15 PM 38.9697 -97.0206 70° East 478 550 37,600 968 Climbing Kansas City Center
Thu 02:56:17 PM 39.0261 -96.8347 69° East 478 550 39,000 677 Climbing Kansas City Center
Thu 02:57:19 PM 39.0686 -96.6836 70° East 472 543 39,000  Level Kansas City Center
Thu 02:58:21 PM 39.1178 -96.5100 70° East 464 534 39,000  Level Kansas City Center
Thu 02:59:23 PM 39.1569 -96.3575 72° East 468 539 39,000  Level Kansas City Center
Thu 03:00:25 PM 39.2061 -96.1811 70° East 468 539 39,000  Level Kansas City Center
Thu 03:01:27 PM 39.2489 -96.0272 70° East 474 545 39,000  Level Kansas City Center
Thu 03:02:29 PM 39.2906 -95.8753 70° East 469 540 39,000  Level Kansas City Center
Thu 03:03:31 PM 39.3397 -95.6944 71° East 474 545 39,000  Level Kansas City Center
Thu 03:04:33 PM 39.3817 -95.5408 70° East 472 543 39,000  Level Kansas City Center
Thu 03:05:35 PM 39.4294 -95.3619 71° East 470 541 39,000  Level Kansas City Center
Thu 03:06:37 PM 39.4725 -95.2036 71° East 466 536 39,000  Level Kansas City Center
Thu 03:07:39 PM 39.5125 -95.0528 71° East 466 536 39,000  Level Kansas City Center
Thu 03:08:41 PM 39.5583 -94.8769 71° East 459 528 39,000  Level Kansas City Center
Thu 03:09:43 PM 39.5986 -94.7264 71° East 460 529 39,000  Level Kansas City Center
Thu 03:10:45 PM 39.6444 -94.5514 71° East 458 527 39,000  Level Kansas City Center
Thu 03:11:47 PM 39.6836 -94.4017 71° East 457 526 39,000  Level Kansas City Center
Thu 03:12:49 PM 39.7283 -94.2275 71° East 456 525 39,000  Level Kansas City Center
Thu 03:13:51 PM 39.7669 -94.0825 71° East 448 516 39,000  Level Kansas City Center
Thu 03:14:53 PM 39.8097 -93.9119 72° East 439 505 39,000  Level Kansas City Center
Thu 03:15:55 PM 39.8442 -93.7667 73° East 438 504 39,000  Level Kansas City Center
Thu 03:16:57 PM 39.8817 -93.6197 72° East 434 499 39,000  Level Kansas City Center
Thu 03:17:59 PM 39.9194 -93.4683 72° East 440 506 39,000  Level Kansas City Center
Thu 03:19:01 PM 39.9592 -93.3172 71° East 445 512 39,000  Level Kansas City Center
Thu 03:20:03 PM 40.0036 -93.1314 73° East 451 519 39,000  Level Kansas City Center
Thu 03:21:05 PM 40.0408 -92.9767 73° East 451 519 39,000  Level Kansas City Center
Thu 03:22:07 PM 40.0814 -92.8103 72° East 456 525 39,000  Level Kansas City Center
Thu 03:23:09 PM 40.1181 -92.6603 72° East 454 522 39,000  Level Kansas City Center
Thu 03:24:11 PM 40.1683 -92.4903 69° East 449 517 39,000  Level Kansas City Center
Thu 03:25:13 PM 40.2244 -92.3514 62° Northeast 449 517 39,000  Level Kansas City Center
Thu 03:26:15 PM 40.2764 -92.2014 66° East 450 518 39,000 -581 Level Kansas City Center
Thu 03:27:17 PM 40.3278 -92.0558 65° Northeast 447 514 37,800 -1,984 Descending Kansas City Center
Thu 03:28:19 PM 40.3919 -91.8744 65° Northeast 459 528 34,900 -2,323 Descending Kansas City Center
Thu 03:29:21 PM 40.4478 -91.7172 65° Northeast 475 547 33,000 -1,790 Descending Kansas City Center
Thu 03:30:23 PM 40.5014 -91.5556 66° East 484 557 31,200 -1,446 Descending Kansas City Center
Thu 03:30:44 PM 40.5236 -91.4922 65° Northeast 485 558 31,000 -145 Descending Chicago Center
Thu 03:31:46 PM 40.5772 -91.3317 66° East 484 557 31,000  Level Chicago Center
Thu 03:32:48 PM 40.6328 -91.1722 65° Northeast 482 555 31,000  Level Chicago Center
Thu 03:33:50 PM 40.6869 -91.0078 66° East 489 563 31,000  Level Chicago Center
Thu 03:34:52 PM 40.7417 -90.8444 66° East 488 562 31,000  Level Chicago Center
Thu 03:35:54 PM 40.8083 -90.6489 66° East 486 559 31,000  Level Chicago Center
Thu 03:36:57 PM 40.8625 -90.4847 66° East 486 559 31,000  Level Chicago Center
Thu 03:37:59 PM 40.9183 -90.3183 66° East 490 564 31,000 -387 Level Chicago Center
Thu 03:39:01 PM 40.9722 -90.1575 66° East 484 557 30,200 -1,403 Descending Chicago Center
Thu 03:40:03 PM 41.0261 -89.9906 67° East 478 550 28,100 -1,887 Descending Chicago Center
Thu 03:41:05 PM 41.0803 -89.8303 66° East 473 544 26,300 -1,887 Descending Chicago Center
Thu 03:42:07 PM 41.1317 -89.6750 66° East 459 528 24,200 -2,081 Descending Chicago Center
Thu 03:43:09 PM 41.1836 -89.5294 65° Northeast 440 506 22,000 -2,323 Descending Chicago Center
Thu 03:44:11 PM 41.2508 -89.3656 61° Northeast 421 484 19,400 -2,226 Descending Chicago Center
Thu 03:45:13 PM 41.3039 -89.2344 62° Northeast 404 465 17,400 -1,984 Descending Chicago Center
Thu 03:46:15 PM 41.3481 -89.1186 63° Northeast 393 452 15,300 -2,129 Descending Chicago Center
Thu 03:47:17 PM 41.4075 -88.9694 62° Northeast 382 440 13,000 -2,016 Descending Chicago Center
Thu 03:48:20 PM 41.4533 -88.8508 63° Northeast 364 419 11,100 -960 Descending Chicago Center
Thu 03:49:22 PM 41.5014 -88.7347 61° Northeast 361 415 11,000 -48 Descending Chicago Center
Thu 03:50:24 PM 41.5428 -88.6297 62° Northeast 322 371 11,000 -97 Level Chicago Center
Thu 03:51:26 PM 41.5803 -88.5447 59° Northeast 273 314 10,800 -823 Descending Chicago Center
Thu 03:52:28 PM 41.6361 -88.4603 48° Northeast 254 292 9,300 -1,306 Descending Chicago Center
Thu 03:53:30 PM 41.6836 -88.3889 48° Northeast 255 293 8,100 -629 Descending Chicago Center
Thu 03:54:32 PM 41.7544 -88.3600 17° North 263 303 8,000 -677 Descending Chicago Center
Thu 03:55:34 PM 41.8228 -88.3317 17° North 256 295 6,700 -1,306 Descending Chicago Center
Thu 03:56:36 PM 41.8906 -88.3028 18° North 256 295 5,300 -1,016 Descending Chicago Center
Thu 03:57:38 PM 41.9367 -88.2497 41° Northeast 256 295 4,600 -629 Descending Chicago Center
Thu 03:58:40 PM 41.9689 -88.1578 65° Northeast 232 267 4,000 -816 Descending Chicago Center
Thu 03:59:43 PM 41.9681 -88.0803 91° East 215 247 2,900 -1,077 Descending Chicago Center
Thu 03:59:58 PM 41.9667 -88.0667 98° East 190 219 2,600 -1,200 Descending Chicago TRACON

Login

Don't have an account? Register now (free) for customized features, flight alerts, and more!